| time (UTC) | temp F | wind direction | speed MPH | gust MPH | rain 1hr in | rain 24hr in | rain mn in | humidity % | barometer mb |
| 20260901191505 | 99 | 188 | 7.0 | 12.0 | 0.00 | 0.00 | 0.00 | 40 | 1015.8 |
| 20260901191005 | 99 | 176 | 9.0 | 14.0 | 0.00 | 0.00 | 0.00 | 40 | 1015.9 |
| 20260901190505 | 98 | 95 | 2.0 | 9.0 | 0.00 | 0.00 | 0.00 | 41 | 1016.0 |
| 20260901190005 | 97 | 183 | 5.0 | 13.0 | 0.00 | 0.00 | 0.00 | 40 | 1016.1 |
| 20260901185505 | 97 | 142 | 3.0 | 13.0 | 0.00 | 0.00 | 0.00 | 41 | 1016.2 |
| 20260901185005 | 98 | 163 | 9.0 | 12.0 | 0.00 | 0.00 | 0.00 | 40 | 1016.3 |
| 20260901184505 | 98 | 120 | 4.0 | 10.0 | 0.00 | 0.00 | 0.00 | 44 | 1016.4 |
| 20260901184005 | 97 | 94 | 2.0 | 8.0 | 0.00 | 0.00 | 0.00 | 44 | 1016.5 |
| 20260901183005 | 96 | 94 | 4.0 | 7.0 | 0.00 | 0.00 | 0.00 | 45 | 1016.7 |
| 20260901182505 | 97 | 123 | 7.0 | 13.0 | 0.00 | 0.00 | 0.00 | 44 | 1016.7 |
| 20260901182004 | 97 | 147 | 6.0 | 13.0 | 0.00 | 0.00 | 0.00 | 44 | 1016.8 |
| 20260901181505 | 96 | 123 | 7.0 | 10.0 | 0.00 | 0.00 | 0.00 | 45 | 1016.9 |
| 20260901181005 | 94 | 118 | 2.0 | 3.0 | 0.00 | 0.00 | 0.00 | 48 | 1016.9 |
| 20260901180504 | 93 | 117 | 2.0 | 7.0 | 0.00 | 0.00 | 0.00 | 49 | 1017.1 |
| 20260901175505 | 92 | 92 | 0.0 | 2.0 | 0.00 | 0.00 | 0.00 | 50 | 1017.2 |
| 20260901175004 | 93 | 118 | 2.0 | 5.0 | 0.00 | 0.00 | 0.00 | 49 | 1017.4 |
| 20260901174006 | 95 | 187 | 5.0 | 10.0 | 0.00 | 0.00 | 0.00 | 47 | 1017.4 |
| 20260901173005 | 95 | 166 | 6.0 | 9.0 | 0.00 | 0.00 | 0.00 | 47 | 1017.6 |
| 20260901172005 | 97 | 9 | 2.0 | 6.0 | 0.00 | 0.00 | 0.00 | 46 | 1017.6 |
| 20260901171504 | 96 | 70 | 0.0 | 3.0 | 0.00 | 0.00 | 0.00 | 47 | 1017.8 |
| 20260901171004 | 95 | 131 | 3.0 | 6.0 | 0.00 | 0.00 | 0.00 | 49 | 1017.8 |
| 20260901170005 | 94 | 146 | 3.0 | 7.0 | 0.00 | 0.00 | 0.00 | 50 | 1018.0 |
| 20260901165504 | 94 | 195 | 5.0 | 12.0 | 0.00 | 0.00 | 0.00 | 50 | 1018.1 |
| 20260901164504 | 94 | 183 | 2.0 | 3.0 | 0.00 | 0.00 | 0.00 | 50 | 1018.0 |
| 20260901164004 | 92 | 183 | 1.0 | 5.0 | 0.00 | 0.00 | 0.00 | 53 | 1018.2 |
| 20260901163505 | 93 | 227 | 2.0 | 5.0 | 0.00 | 0.00 | 0.00 | 51 | 1018.2 |
| 20260901163005 | 94 | 147 | 2.0 | 8.0 | 0.00 | 0.00 | 0.00 | 50 | 1018.2 |
| 20260901162005 | 94 | 165 | 3.0 | 10.0 | 0.00 | 0.00 | 0.00 | 49 | 1018.2 |
| 20260901161505 | 93 | 221 | 1.0 | 3.0 | 0.00 | 0.00 | 0.00 | 51 | 1018.2 |
| 20260901161005 | 94 | 214 | 2.0 | 9.0 | 0.00 | 0.00 | 0.00 | 51 | 1018.2 |
| 20260901160505 | 94 | 261 | 4.0 | 10.0 | 0.00 | 0.00 | 0.00 | 51 | 1018.1 |
| 20260901160005 | 94 | 248 | 3.0 | 8.0 | 0.00 | 0.00 | 0.00 | 51 | 1018.2 |
| 20260901155505 | 93 | 186 | 2.0 | 8.0 | 0.00 | 0.00 | 0.00 | 53 | 1018.2 |
| 20260901154504 | 93 | 246 | 4.0 | 8.0 | 0.00 | 0.00 | 0.00 | 52 | 1018.0 |
| 20260901153505 | 92 | 256 | 4.0 | 9.0 | 0.00 | 0.00 | 0.00 | 53 | 1018.0 |
| 20260901153004 | 92 | 241 | 2.0 | 5.0 | 0.00 | 0.00 | 0.00 | 54 | 1018.0 |
| 20260901152004 | 91 | 198 | 3.0 | 8.0 | 0.00 | 0.00 | 0.00 | 55 | 1018.0 |
| 20260901151505 | 91 | 232 | 4.0 | 8.0 | 0.00 | 0.00 | 0.00 | 56 | 1018.1 |
| 20260901151005 | 90 | 263 | 5.0 | 8.0 | 0.00 | 0.00 | 0.00 | 57 | 1018.1 |
| 20260901150504 | 90 | 161 | 3.0 | 7.0 | 0.00 | 0.00 | 0.00 | 57 | 1018.1 |
| 20260901150004 | 90 | 261 | 5.0 | 8.0 | 0.00 | 0.00 | 0.00 | 57 | 1018.2 |
| 20260901145005 | 89 | 198 | 2.0 | 5.0 | 0.00 | 0.00 | 0.00 | 58 | 1018.2 |
| 20260901144504 | 89 | 198 | 1.0 | 6.0 | 0.00 | 0.00 | 0.00 | 59 | 1018.2 |
| 20260901144004 | 88 | 195 | 2.0 | 7.0 | 0.00 | 0.00 | 0.00 | 59 | 1018.2 |
| 20260901143504 | 88 | 242 | 3.0 | 6.0 | 0.00 | 0.00 | 0.00 | 60 | 1018.2 |
| 20260901143005 | 88 | 190 | 1.0 | 5.0 | 0.00 | 0.00 | 0.00 | 60 | 1018.3 |
| 20260901141504 | 87 | 175 | 0.0 | 7.0 | 0.00 | 0.00 | 0.00 | 62 | 1018.3 |
| 20260901141004 | 87 | 179 | 5.0 | 7.0 | 0.00 | 0.00 | 0.00 | 62 | 1018.2 |
| 20260901140004 | 86 | 171 | 5.0 | 8.0 | 0.00 | 0.00 | 0.00 | 63 | 1018.3 |
| 20260901135504 | 86 | 161 | 3.0 | 9.0 | 0.00 | 0.00 | 0.00 | 64 | 1018.3 |
| 20260901135004 | 85 | 176 | 5.0 | 8.0 | 0.00 | 0.00 | 0.00 | 64 | 1018.2 |
| 20260901134504 | 85 | 164 | 4.0 | 10.0 | 0.00 | 0.00 | 0.00 | 64 | 1018.2 |
| 20260901134005 | 84 | 165 | 3.0 | 10.0 | 0.00 | 0.00 | 0.00 | 66 | 1018.3 |
| 20260901133504 | 84 | 175 | 3.0 | 7.0 | 0.00 | 0.00 | 0.00 | 67 | 1018.2 |
| 20260901133004 | 83 | 157 | 5.0 | 8.0 | 0.00 | 0.00 | 0.00 | 67 | 1018.2 |
| 20260901132504 | 83 | 165 | 6.0 | 10.0 | 0.00 | 0.00 | 0.00 | 67 | 1018.2 |
| 20260901132004 | 82 | 181 | 5.0 | 8.0 | 0.00 | 0.00 | 0.00 | 68 | 1018.1 |
| 20260901131504 | 82 | 170 | 3.0 | 7.0 | 0.00 | 0.00 | 0.00 | 69 | 1018.1 |
| 20260901131005 | 81 | 171 | 2.0 | 7.0 | 0.00 | 0.00 | 0.00 | 70 | 1018.0 |
| 20260901130505 | 81 | 171 | 0.0 | 2.0 | 0.00 | 0.00 | 0.00 | 71 | 1018.0 |
| 20260901130005 | 80 | 171 | 0.0 | 2.0 | 0.00 | 0.00 | 0.00 | 72 | 1017.9 |
| 20260901125505 | 80 | 171 | 0.0 | 0.0 | 0.00 | 0.00 | 0.00 | 72 | 1017.7 |
| 20260901125004 | 79 | 171 | 0.0 | 2.0 | 0.00 | 0.00 | 0.00 | 73 | 1017.7 |
| 20260901124505 | 79 | 171 | 0.0 | 2.0 | 0.00 | 0.00 | 0.00 | 73 | 1017.6 |
| 20260901124004 | 79 | 171 | 1.0 | 2.0 | 0.00 | 0.00 | 0.00 | 73 | 1017.6 |
| 20260901123504 | 79 | 171 | 0.0 | 1.0 | 0.00 | 0.00 | 0.00 | 73 | 1017.4 |
| 20260901122504 | 79 | 171 | 0.0 | 0.0 | 0.00 | 0.00 | 0.00 | 72 | 1017.3 |
| 20260901122004 | 79 | 171 | 0.0 | 0.0 | 0.00 | 0.00 | 0.00 | 73 | 1017.3 |
| 20260901121504 | 79 | 171 | 0.0 | 1.0 | 0.00 | 0.00 | 0.00 | 73 | 1017.2 |
| 20260901121004 | 79 | 171 | 0.0 | 0.0 | 0.00 | 0.00 | 0.00 | 74 | 1017.2 |
| 20260901120505 | 79 | 171 | 0.0 | 0.0 | 0.00 | 0.00 | 0.00 | 75 | 1017.2 |
| 20260901120004 | 79 | 171 | 0.0 | 0.0 | 0.00 | 0.00 | 0.00 | 72 | 1017.3 |
| 20260901115504 | 79 | 171 | 0.0 | 2.0 | 0.00 | 0.00 | 0.00 | 72 | 1017.2 |
| 20260901115004 | 79 | 171 | 1.0 | 2.0 | 0.00 | 0.00 | 0.00 | 71 | 1017.1 |
| 20260901114504 | 79 | 171 | 0.0 | 0.0 | 0.00 | 0.00 | 0.00 | 70 | 1017.1 |
| 20260901113505 | 80 | 171 | 0.0 | 1.0 | 0.00 | 0.00 | 0.00 | 69 | 1017.0 |
| 20260901113004 | 80 | 171 | 0.0 | 2.0 | 0.00 | 0.00 | 0.00 | 69 | 1017.0 |
| 20260901112004 | 80 | 171 | 0.0 | 6.0 | 0.00 | 0.00 | 0.00 | 68 | 1016.8 |
| 20260901111504 | 80 | 171 | 2.0 | 5.0 | 0.00 | 0.00 | 0.00 | 68 | 1016.7 |
| 20260901110504 | 81 | 171 | 2.0 | 5.0 | 0.00 | 0.00 | 0.00 | 67 | 1016.6 |
| 20260901110004 | 81 | 171 | 2.0 | 5.0 | 0.00 | 0.00 | 0.00 | 67 | 1016.6 |
| 20260901105504 | 81 | 171 | 2.0 | 5.0 | 0.00 | 0.00 | 0.00 | 67 | 1016.7 |
| 20260901105004 | 81 | 171 | 3.0 | 6.0 | 0.00 | 0.00 | 0.00 | 70 | 1016.7 |
| 20260901104003 | 81 | 159 | 2.0 | 7.0 | 0.00 | 0.00 | 0.00 | 66 | 1016.7 |
| 20260901103003 | 82 | 175 | 2.0 | 5.0 | 0.00 | 0.00 | 0.00 | 65 | 1016.7 |
| 20260901102504 | 82 | 175 | 3.0 | 5.0 | 0.00 | 0.00 | 0.00 | 65 | 1016.7 |
| 20260901102003 | 82 | 175 | 3.0 | 5.0 | 0.00 | 0.00 | 0.00 | 65 | 1016.7 |
| 20260901101504 | 82 | 175 | 2.0 | 5.0 | 0.00 | 0.00 | 0.00 | 65 | 1016.8 |
| 20260901101004 | 82 | 175 | 2.0 | 5.0 | 0.00 | 0.00 | 0.00 | 66 | 1016.8 |
| 20260901100004 | 82 | 164 | 3.0 | 6.0 | 0.00 | 0.00 | 0.00 | 65 | 1016.8 |
| 20260901095503 | 82 | 164 | 1.0 | 2.0 | 0.00 | 0.00 | 0.00 | 65 | 1016.8 |
| 20260901095004 | 82 | 164 | 2.0 | 6.0 | 0.00 | 0.00 | 0.00 | 65 | 1016.8 |
| 20260901094504 | 82 | 164 | 1.0 | 5.0 | 0.00 | 0.00 | 0.00 | 66 | 1016.9 |
| 20260901093003 | 83 | 164 | 2.0 | 5.0 | 0.00 | 0.00 | 0.00 | 62 | 1016.9 |
| 20260901092504 | 83 | 164 | 1.0 | 5.0 | 0.00 | 0.00 | 0.00 | 62 | 1016.8 |
| 20260901092004 | 83 | 164 | 1.0 | 5.0 | 0.00 | 0.00 | 0.00 | 62 | 1016.9 |
| 20260901091503 | 84 | 164 | 2.0 | 5.0 | 0.00 | 0.00 | 0.00 | 62 | 1016.8 |
| 20260901091003 | 84 | 164 | 2.0 | 7.0 | 0.00 | 0.00 | 0.00 | 61 | 1016.8 |
| 20260901090503 | 84 | 163 | 3.0 | 6.0 | 0.00 | 0.00 | 0.00 | 60 | 1016.7 |
| 20260901090006 | 84 | 157 | 2.0 | 7.0 | 0.00 | 0.00 | 0.00 | 60 | 1016.5 |
| 20260901085507 | 84 | 254 | 2.0 | 5.0 | 0.00 | 0.00 | 0.00 | 60 | 1016.4 |
| 20260901085007 | 84 | 165 | 2.0 | 6.0 | 0.00 | 0.00 | 0.00 | 60 | 1016.5 |
| 20260901084007 | 84 | 178 | 3.0 | 7.0 | 0.00 | 0.00 | 0.00 | 59 | 1016.6 |
| 20260901083507 | 84 | 185 | 3.0 | 7.0 | 0.00 | 0.00 | 0.00 | 59 | 1016.6 |
| 20260901083007 | 84 | 183 | 2.0 | 6.0 | 0.00 | 0.00 | 0.00 | 59 | 1016.6 |
| 20260901082507 | 84 | 178 | 5.0 | 8.0 | 0.00 | 0.00 | 0.00 | 59 | 1016.5 |
| 20260901082006 | 84 | 175 | 2.0 | 6.0 | 0.00 | 0.00 | 0.00 | 58 | 1016.5 |
| 20260901081506 | 84 | 177 | 3.0 | 7.0 | 0.00 | 0.00 | 0.00 | 58 | 1016.6 |
| 20260901081007 | 84 | 177 | 3.0 | 8.0 | 0.00 | 0.00 | 0.00 | 58 | 1016.5 |
| 20260901080507 | 84 | 157 | 5.0 | 8.0 | 0.00 | 0.00 | 0.00 | 58 | 1016.6 |
| 20260901080006 | 84 | 167 | 5.0 | 7.0 | 0.00 | 0.00 | 0.00 | 58 | 1016.6 |
| 20260901075507 | 84 | 167 | 5.0 | 8.0 | 0.00 | 0.00 | 0.00 | 57 | 1016.5 |
| 20260901075007 | 85 | 174 | 3.0 | 7.0 | 0.00 | 0.00 | 0.00 | 57 | 1016.5 |
| 20260901074507 | 85 | 150 | 3.0 | 5.0 | 0.00 | 0.00 | 0.00 | 57 | 1016.5 |
| 20260901074007 | 85 | 150 | 4.0 | 8.0 | 0.00 | 0.00 | 0.00 | 56 | 1016.6 |
| 20260901073007 | 85 | 167 | 3.0 | 7.0 | 0.00 | 0.00 | 0.00 | 56 | 1016.5 |
| 20260901072507 | 85 | 166 | 3.0 | 7.0 | 0.00 | 0.00 | 0.00 | 56 | 1016.5 |
| 20260901072007 | 85 | 142 | 2.0 | 8.0 | 0.00 | 0.00 | 0.00 | 56 | 1016.5 |
| 20260901071507 | 85 | 139 | 3.0 | 6.0 | 0.00 | 0.00 | 0.00 | 55 | 1016.5 |
| 20260901071007 | 85 | 161 | 3.0 | 6.0 | 0.00 | 0.00 | 0.00 | 55 | 1016.5 |
| 20260901070507 | 85 | 174 | 3.0 | 8.0 | 0.00 | 0.00 | 0.00 | 55 | 1016.4 |
| 20260901070006 | 85 | 149 | 3.0 | 8.0 | 0.00 | 0.00 | 0.00 | 55 | 1016.5 |
| 20260901065007 | 86 | 144 | 2.0 | 8.0 | 0.00 | 0.00 | 0.00 | 54 | 1016.4 |
| 20260901064506 | 86 | 134 | 3.0 | 6.0 | 0.00 | 0.00 | 0.00 | 54 | 1016.4 |
| 20260901064007 | 86 | 137 | 2.0 | 7.0 | 0.00 | 0.00 | 0.00 | 54 | 1016.4 |
| 20260901063507 | 86 | 117 | 3.0 | 8.0 | 0.00 | 0.00 | 0.00 | 54 | 1016.3 |
| 20260901062507 | 87 | 171 | 4.0 | 9.0 | 0.00 | 0.00 | 0.00 | 53 | 1016.3 |
| 20260901062006 | 87 | 166 | 3.0 | 8.0 | 0.00 | 0.00 | 0.00 | 53 | 1016.3 |
| 20260901061506 | 87 | 159 | 3.0 | 8.0 | 0.00 | 0.00 | 0.00 | 52 | 1016.3 |
| 20260901061007 | 87 | 149 | 3.0 | 12.0 | 0.00 | 0.00 | 0.00 | 52 | 1016.2 |
| 20260901060506 | 87 | 145 | 5.0 | 8.0 | 0.00 | 0.00 | 0.00 | 52 | 1016.1 |
| 20260901060006 | 87 | 163 | 3.0 | 9.0 | 0.00 | 0.00 | 0.00 | 51 | 1016.0 |
| 20260901055006 | 87 | 140 | 3.0 | 9.0 | 0.00 | 0.00 | 0.00 | 50 | 1016.0 |
| 20260901054506 | 87 | 146 | 4.0 | 8.0 | 0.00 | 0.00 | 0.00 | 50 | 1015.9 |
| 20260901053506 | 87 | 142 | 3.0 | 6.0 | 0.00 | 0.00 | 0.00 | 50 | 1015.9 |
| 20260901053006 | 87 | 149 | 3.0 | 6.0 | 0.00 | 0.00 | 0.00 | 50 | 1015.9 |
| 20260901052506 | 87 | 130 | 3.0 | 6.0 | 0.00 | 0.00 | 0.00 | 50 | 1015.9 |
| 20260901052007 | 87 | 120 | 1.0 | 6.0 | 0.00 | 0.00 | 0.00 | 51 | 1015.9 |
| 20260901050506 | 87 | 119 | 2.0 | 2.0 | 0.00 | 0.00 | 0.00 | 51 | 1015.6 |
| 20260901050006 | 87 | 119 | 2.0 | 7.0 | 0.00 | 0.00 | 0.00 | 51 | 1015.6 |
| 20260901045507 | 86 | 120 | 3.0 | 8.0 | 0.00 | 0.00 | 0.00 | 51 | 1015.6 |
| 20260901045006 | 86 | 127 | 4.0 | 10.0 | 0.00 | 0.00 | 0.00 | 52 | 1015.6 |
| 20260901044006 | 86 | 150 | 1.0 | 2.0 | 0.00 | 0.00 | 0.00 | 51 | 1015.4 |
| 20260901043506 | 86 | 150 | 1.0 | 3.0 | 0.00 | 0.00 | 0.00 | 51 | 1015.4 |
| 20260901043006 | 86 | 150 | 0.0 | 2.0 | 0.00 | 0.00 | 0.00 | 50 | 1015.4 |
| 20260901042507 | 86 | 150 | 0.0 | 0.0 | 0.00 | 0.00 | 0.00 | 50 | 1015.5 |
| 20260901042006 | 86 | 150 | 1.0 | 3.0 | 0.00 | 0.00 | 0.00 | 50 | 1015.4 |
| 20260901041506 | 86 | 150 | 2.0 | 3.0 | 0.00 | 0.00 | 0.00 | 50 | 1015.4 |
| 20260901041006 | 86 | 150 | 0.0 | 0.0 | 0.00 | 0.00 | 0.00 | 49 | 1015.4 |
| 20260901040506 | 87 | 150 | 0.0 | 1.0 | 0.00 | 0.00 | 0.00 | 48 | 1015.4 |
| 20260901040007 | 87 | 150 | 0.0 | 2.0 | 0.00 | 0.00 | 0.00 | 48 | 1015.3 |
| 20260901035506 | 87 | 150 | 1.0 | 3.0 | 0.00 | 0.00 | 0.00 | 48 | 1015.4 |
| 20260901035006 | 87 | 150 | 0.0 | 2.0 | 0.00 | 0.00 | 0.00 | 49 | 1015.4 |
| 20260901034506 | 87 | 150 | 1.0 | 2.0 | 0.00 | 0.00 | 0.00 | 48 | 1015.6 |
| 20260901034006 | 87 | 150 | 0.0 | 0.0 | 0.00 | 0.00 | 0.00 | 48 | 1015.4 |
| 20260901033006 | 87 | 150 | 0.0 | 1.0 | 0.00 | 0.00 | 0.00 | 47 | 1015.4 |
| 20260901032506 | 87 | 150 | 1.0 | 2.0 | 0.00 | 0.00 | 0.00 | 46 | 1015.4 |
| 20260901032006 | 87 | 150 | 1.0 | 2.0 | 0.00 | 0.00 | 0.00 | 46 | 1015.4 |
| 20260901031506 | 88 | 150 | 0.0 | 0.0 | 0.00 | 0.00 | 0.00 | 46 | 1015.3 |
| 20260901031006 | 88 | 150 | 0.0 | 0.0 | 0.00 | 0.00 | 0.00 | 45 | 1015.3 |
| 20260901030506 | 88 | 150 | 0.0 | 0.0 | 0.00 | 0.00 | 0.00 | 45 | 1015.3 |
| 20260901030006 | 89 | 150 | 0.0 | 0.0 | 0.00 | 0.00 | 0.00 | 44 | 1015.2 |
| 20260901025506 | 89 | 150 | 0.0 | 0.0 | 0.00 | 0.00 | 0.00 | 43 | 1015.1 |
| 20260901025006 | 90 | 150 | 0.0 | 0.0 | 0.00 | 0.00 | 0.00 | 42 | 1015.1 |
| 20260901024506 | 90 | 150 | 0.0 | 0.0 | 0.00 | 0.00 | 0.00 | 41 | 1015.1 |
| 20260901024006 | 90 | 150 | 0.0 | 3.0 | 0.00 | 0.00 | 0.00 | 41 | 1015.0 |
| 20260901023506 | 91 | 150 | 2.0 | 3.0 | 0.00 | 0.00 | 0.00 | 41 | 1014.9 |
| 20260901023006 | 91 | 150 | 1.0 | 2.0 | 0.00 | 0.00 | 0.00 | 40 | 1014.8 |
| 20260901021505 | 92 | 150 | 1.0 | 2.0 | 0.00 | 0.00 | 0.00 | 39 | 1014.7 |
| 20260901021006 | 92 | 150 | 2.0 | 2.0 | 0.00 | 0.00 | 0.00 | 39 | 1014.6 |
| 20260901020506 | 92 | 150 | 3.0 | 5.0 | 0.00 | 0.00 | 0.00 | 38 | 1014.6 |
| 20260901020006 | 92 | 150 | 2.0 | 5.0 | 0.00 | 0.00 | 0.00 | 38 | 1014.4 |
| 20260901015506 | 93 | 150 | 2.0 | 5.0 | 0.00 | 0.00 | 0.00 | 38 | 1014.6 |
| 20260901015006 | 93 | 150 | 2.0 | 3.0 | 0.00 | 0.00 | 0.00 | 38 | 1014.5 |
| 20260901014505 | 93 | 150 | 2.0 | 3.0 | 0.00 | 0.00 | 0.00 | 38 | 1014.5 |
| 20260901014005 | 94 | 150 | 3.0 | 8.0 | 0.00 | 0.00 | 0.00 | 37 | 1014.5 |
| 20260901013006 | 94 | 150 | 4.0 | 8.0 | 0.00 | 0.00 | 0.00 | 37 | 1014.4 |
| 20260901012506 | 94 | 168 | 3.0 | 10.0 | 0.00 | 0.00 | 0.00 | 36 | 1014.4 |
| 20260901012006 | 94 | 152 | 6.0 | 12.0 | 0.00 | 0.00 | 0.00 | 37 | 1014.3 |
| 20260901011506 | 95 | 172 | 3.0 | 10.0 | 0.00 | 0.00 | 0.00 | 36 | 1014.3 |
| 20260901011006 | 95 | 164 | 5.0 | 9.0 | 0.00 | 0.00 | 0.00 | 36 | 1014.4 |
| 20260901010506 | 95 | 156 | 6.0 | 12.0 | 0.00 | 0.00 | 0.00 | 36 | 1014.3 |
| 20260901005506 | 95 | 155 | 1.0 | 8.0 | 0.00 | 0.00 | 0.00 | 35 | 1014.3 |
| 20260901005006 | 95 | 161 | 3.0 | 8.0 | 0.00 | 0.00 | 0.00 | 35 | 1014.3 |
| 20260901004506 | 96 | 164 | 2.0 | 6.0 | 0.00 | 0.00 | 0.00 | 35 | 1014.2 |
| 20260901004005 | 96 | 51 | 3.0 | 10.0 | 0.00 | 0.00 | 0.00 | 35 | 1014.1 |
| 20260901003506 | 96 | 51 | 4.0 | 8.0 | 0.00 | 0.00 | 0.00 | 34 | 1014.2 |
| 20260901003006 | 96 | 51 | 2.0 | 7.0 | 0.00 | 0.00 | 0.00 | 34 | 1014.2 |
| 20260901002505 | 96 | 51 | 5.0 | 8.0 | 0.00 | 0.00 | 0.00 | 34 | 1014.1 |
| 20260901002006 | 96 | 166 | 4.0 | 12.0 | 0.00 | 0.00 | 0.00 | 33 | 1014.2 |
| 20260901001506 | 96 | 171 | 3.0 | 9.0 | 0.00 | 0.00 | 0.00 | 33 | 1014.1 |
| 20260901001005 | 97 | 140 | 3.0 | 10.0 | 0.00 | 0.00 | 0.00 | 33 | 1014.1 |
| 20260901000506 | 97 | 140 | 3.0 | 9.0 | 0.00 | 0.00 | 0.00 | 33 | 1014.2 |
| 20260901000006 | 97 | 142 | 6.0 | 12.0 | 0.00 | 0.00 | 0.00 | 32 | 1014.1 |
| 20260831235506 | 97 | 156 | 6.0 | 12.0 | 0.00 | 0.00 | 0.00 | 32 | 1014.1 |
| 20260831235005 | 97 | 163 | 5.0 | 9.0 | 0.00 | 0.00 | 0.00 | 33 | 1014.2 |
| 20260831234006 | 98 | 166 | 6.0 | 10.0 | 0.00 | 0.00 | 0.00 | 32 | 1014.3 |
| 20260831233505 | 98 | 142 | 3.0 | 9.0 | 0.00 | 0.00 | 0.00 | 32 | 1014.2 |
| 20260831233005 | 97 | 125 | 4.0 | 9.0 | 0.00 | 0.00 | 0.00 | 33 | 1014.2 |
| 20260831232506 | 98 | 101 | 3.0 | 8.0 | 0.00 | 0.00 | 0.00 | 32 | 1014.2 |
| 20260831232006 | 98 | 186 | 3.0 | 8.0 | 0.00 | 0.00 | 0.00 | 32 | 1014.1 |
| 20260831231505 | 98 | 135 | 3.0 | 8.0 | 0.00 | 0.00 | 0.00 | 32 | 1014.2 |
| 20260831231005 | 98 | 128 | 5.0 | 13.0 | 0.00 | 0.00 | 0.00 | 32 | 1014.0 |
| 20260831230506 | 98 | 165 | 4.0 | 10.0 | 0.00 | 0.00 | 0.00 | 32 | 1014.2 |
| 20260831230005 | 99 | 165 | 5.0 | 13.0 | 0.00 | 0.00 | 0.00 | 32 | 1014.3 |
| 20260831225505 | 99 | 143 | 5.0 | 12.0 | 0.00 | 0.00 | 0.00 | 32 | 1014.3 |
| 20260831225006 | 99 | 120 | 6.0 | 13.0 | 0.00 | 0.00 | 0.00 | 32 | 1014.2 |
| 20260831224506 | 99 | 180 | 3.0 | 8.0 | 0.00 | 0.00 | 0.00 | 32 | 1014.3 |
| 20260831224005 | 99 | 186 | 3.0 | 9.0 | 0.00 | 0.00 | 0.00 | 31 | 1014.3 |
| 20260831222505 | 99 | 185 | 6.0 | 13.0 | 0.00 | 0.00 | 0.00 | 32 | 1014.5 |
| 20260831222005 | 99 | 175 | 6.0 | 13.0 | 0.00 | 0.00 | 0.00 | 32 | 1014.4 |
| 20260831221505 | 99 | 191 | 6.0 | 10.0 | 0.00 | 0.00 | 0.00 | 32 | 1014.5 |
| 20260831221005 | 98 | 123 | 1.0 | 5.0 | 0.00 | 0.00 | 0.00 | 33 | 1014.5 |
| 20260831220505 | 98 | 185 | 3.0 | 10.0 | 0.00 | 0.00 | 0.00 | 32 | 1014.6 |
| 20260831220005 | 99 | 149 | 7.0 | 13.0 | 0.00 | 0.00 | 0.00 | 31 | 1014.6 |
| 20260831215505 | 100 | 163 | 7.0 | 13.0 | 0.00 | 0.00 | 0.00 | 31 | 1014.6 |
| 20260831215005 | 100 | 114 | 9.0 | 14.0 | 0.00 | 0.00 | 0.00 | 32 | 1014.8 |
| 20260831214505 | 100 | 138 | 6.0 | 12.0 | 0.00 | 0.00 | 0.00 | 31 | 1014.8 |
| 20260831214005 | 101 | 169 | 7.0 | 13.0 | 0.00 | 0.00 | 0.00 | 30 | 1014.8 |
| 20260831213505 | 101 | 105 | 5.0 | 10.0 | 0.00 | 0.00 | 0.00 | 31 | 1014.9 |
| 20260831213005 | 101 | 174 | 9.0 | 13.0 | 0.00 | 0.00 | 0.00 | 30 | 1014.9 |
| 20260831212005 | 101 | 187 | 6.0 | 12.0 | 0.00 | 0.00 | 0.00 | 31 | 1015.1 |
| 20260831211505 | 100 | 146 | 7.0 | 13.0 | 0.00 | 0.00 | 0.00 | 32 | 1015.0 |
| 20260831211005 | 101 | 148 | 9.0 | 14.0 | 0.00 | 0.00 | 0.00 | 32 | 1015.2 |
| 20260831210505 | 100 | 170 | 6.0 | 13.0 | 0.00 | 0.00 | 0.00 | 32 | 1015.3 |
| 20260831210005 | 100 | 133 | 5.0 | 8.0 | 0.00 | 0.00 | 0.00 | 32 | 1015.2 |
| 20260831205505 | 100 | 167 | 5.0 | 9.0 | 0.00 | 0.00 | 0.00 | 32 | 1015.4 |
| 20260831205005 | 100 | 137 | 6.0 | 13.0 | 0.00 | 0.00 | 0.00 | 31 | 1015.5 |
| 20260831204506 | 100 | 128 | 7.0 | 14.0 | 0.00 | 0.00 | 0.00 | 33 | 1015.5 |
| 20260831204006 | 100 | 169 | 9.0 | 17.0 | 0.00 | 0.00 | 0.00 | 33 | 1015.5 |
| 20260831203505 | 100 | 119 | 9.0 | 15.0 | 0.00 | 0.00 | 0.00 | 32 | 1015.7 |
| 20260831202505 | 98 | 163 | 6.0 | 13.0 | 0.00 | 0.00 | 0.00 | 35 | 1015.8 |
| 20260831202005 | 99 | 106 | 6.0 | 13.0 | 0.00 | 0.00 | 0.00 | 34 | 1015.7 |
| 20260831201505 | 100 | 127 | 6.0 | 12.0 | 0.00 | 0.00 | 0.00 | 34 | 1015.8 |
| 20260831201005 | 100 | 188 | 10.0 | 17.0 | 0.00 | 0.00 | 0.00 | 34 | 1015.9 |
| 20260831200505 | 101 | 127 | 7.0 | 14.0 | 0.00 | 0.00 | 0.00 | 31 | 1015.9 |
| 20260831200005 | 101 | 107 | 8.0 | 16.0 | 0.00 | 0.00 | 0.00 | 32 | 1016.1 |
| 20260831195505 | 101 | 144 | 7.0 | 13.0 | 0.00 | 0.00 | 0.00 | 32 | 1016.1 |
| 20260831195005 | 100 | 152 | 7.0 | 13.0 | 0.00 | 0.00 | 0.00 | 33 | 1016.2 |
| 20260831194505 | 98 | 166 | 5.0 | 17.0 | 0.00 | 0.00 | 0.00 | 34 | 1016.3 |
| 20260831194005 | 99 | 166 | 2.0 | 8.0 | 0.00 | 0.00 | 0.00 | 34 | 1016.3 |
| 20260831193505 | 99 | 158 | 3.0 | 7.0 | 0.00 | 0.00 | 0.00 | 33 | 1016.5 |
| 20260831193005 | 101 | 156 | 6.0 | 13.0 | 0.00 | 0.00 | 0.00 | 31 | 1016.4 |
| 20260831192505 | 100 | 179 | 10.0 | 14.0 | 0.00 | 0.00 | 0.00 | 31 | 1016.4 |
| 20260831192005 | 98 | 136 | 4.0 | 10.0 | 0.00 | 0.00 | 0.00 | 35 | 1016.5 |